Wyatt, MO (63882)

3:45 PM CDT on July 04, 2015 (GMT -0500)
Cairo Regional | | Change Station
CLOSE
Current Station
Airport
Location: Cairo,
Elevation: 322 ft
Nearby Weather Stations
Active Advisory: Flood Warning

Elev 322 ft 37.06 °N, 89.22 °W | Updated 10 minutes ago

Clear
Clear
79 °F
Feels Like 79 °F
N
5
Wind Variable Wind from North

Today
High -- | Low -- °F
--% Chance of Precip.
Yesterday
High -- | Low -- °F
Precip. -- in
5:42 AM 8:19 PM
Waning Gibbous, 90% visible
Pressure 29.97 in
Visibility 10.0 miles
Clouds Clear
Dew Point 67 °F
Humidity 65%
Rainfall 0.00 in
Snow Depth Not available.
UV 8 out of 12
Pollen 3.30 out of 12
Air Quality Not available.
Flu Activity Not available.
METAR KCIR 042035Z AUTO 01004KT 10SM CLR 26/19 A2997 RMK AO2 T02620192

More Conditions Fewer Conditions

Pressure 29.97 in
Visibility 10.0 miles
Clouds Clear
Dew Point 67 °F
Humidity 65%
Rainfall 0.00 in
Snow Depth Not available.
UV 8 out of 12
Pollen 3.30 out of 12
Air Quality Not available.
Flu Activity Not available.
METAR KCIR 042035Z AUTO 01004KT 10SM CLR 26/19 A2997 RMK AO2 T02620192

More Conditions Fewer Conditions

10-Day Weather Forecast

×

Almanac

Astronomy

Jul. 04, 2015 Rise Set
Actual Time
Civil Twilight
Nautical Twilight
Astronomical Twilight
Moon
Length of Visible Light
Length of Day
Tomorrow will be .
, % of the Moon is Illuminated

Today's Extremes

State Highs State Lows

Community

WunderPhotos

Upload Photos

1,835,091 photos uploaded!

WunderBlogs® & News

Nearby

Air Quality

  Air Quality AQ Index Pollutant
Not available.

Snow Depth

Station Depth Elevation

Earthquake Activity

City Distance Mag. Time & Date
Minimum magnitude displayed is 2.5.

Coastal Water Temperatures

Place Temperature

Stations

Nearby Weather Stations

Station Location Temp. Windchill Dew Point Humidity Wind Precip. Elev Updated Type
                   
Flood Warning
Statement as of 12:21 PM CDT on July 04, 2015

The Flood Warning continues for
the Ohio River at Cairo
* until further notice.
* At 12:00 PM Saturday the stage was 48.2 feet.
* Flood stage is 40.0 feet.
* Moderate flooding is occurring and moderate flooding is forecast.
* Forecast... the river will continue rising to near 48.5 feet by
Monday morning.
* Impact... at 50.0 feet... the first gate is closed at Cairo.


Lat... Lon 3709 8946 3651 8918 3680 8900 3709 8907
      3717 8916





1218 PM CDT Sat Jul 4 2015

The Flood Warning continues for
the Mississippi River at New Madrid
* until further notice.
* At 12:00 PM Saturday the stage was 35.4 feet.
* Flood stage is 34.0 feet.
* Minor flooding is occurring and minor flooding is forecast.
* Forecast... the river will continue rising to near 36.5 feet by
Tuesday morning then begin a slow fall.
* Impact... at 38.0 feet... heavy agricultural damage begins.


Lat... Lon 3662 8962 3648 8964 3648 8935 3650 8935
      3651 8918 3669 8927